aviador You're here:

LFBA Decoded Metar

AGEN in FRANCE
Report Time2017-10-22 17:00:00
UTC Time2017-10-22 17:21:58
Flight Rules vfr VFR
Wind290° at 07 kt
W.Decomp.*RWY 29: 7.0 kt HW 0 kt LCW
W.Rank290° ranks 5
Current wind is above 290° avg. (6.6)
Visibility9999 m
Phenomena:N/A
Clouds:N/A
Expected CloudBase > 2,400 ft AGL from Temp-Dew spread
CeilingNone
Temp14°C (ISA -1)
Dew Point08°C (67% RH)
AAT11.0°C
QNH1026 hPa
Density Alt-167 ft
Elevation197 ft
Report Wrong Elevation
Raw Report
METAR LFBA 221700Z AUTO 29007KT CAVOK 14/08 Q1026 NOSIG=

Extra information for LFBA:More info

Metar Taf Metar & Taf Last 4 Metars F.Rules Stats Wind Profile Meteogram Temp Stats Airport Information Weather charts Add Link Nearby VenuesMetar ALERT Operation Metar Decoded Social comments